sensor_id;sensor_type;location;lat;lon;timestamp;pressure;altitude;pressure_sealevel;temperature;humidity
8051;BME280;4068;42.158;24.732;2023-05-09T00:01:13;100012.81;;;12.05;100.00
8051;BME280;4068;42.158;24.732;2023-05-09T00:03:38;100016.94;;;12.09;100.00
8051;BME280;4068;42.158;24.732;2023-05-09T00:06:05;100001.09;;;12.07;100.00
8051;BME280;4068;42.158;24.732;2023-05-09T00:08:31;100019.94;;;12.16;100.00
8051;BME280;4068;42.158;24.732;2023-05-09T00:10:56;100018.97;;;12.17;100.00
8051;BME280;4068;42.158;24.732;2023-05-09T00:13:22;99989.13;;;11.90;100.00
8051;BME280;4068;42.158;24.732;2023-05-09T00:15:49;100020.66;;;12.06;100.00
8051;BME280;4068;42.158;24.732;2023-05-09T00:18:18;100016.44;;;12.04;100.00
8051;BME280;4068;42.158;24.732;2023-05-09T00:20:43;100022.00;;;12.12;100.00
8051;BME280;4068;42.158;24.732;2023-05-09T00:23:09;100028.50;;;12.19;100.00
8051;BME280;4068;42.158;24.732;2023-05-09T00:25:34;100021.50;;;12.18;100.00
8051;BME280;4068;42.158;24.732;2023-05-09T00:28:00;100023.69;;;12.13;100.00
8051;BME280;4068;42.158;24.732;2023-05-09T00:30:25;100015.97;;;12.10;100.00
8051;BME280;4068;42.158;24.732;2023-05-09T00:32:50;100028.00;;;12.25;100.00
8051;BME280;4068;42.158;24.732;2023-05-09T00:35:16;100023.19;;;12.19;100.00
8051;BME280;4068;42.158;24.732;2023-05-09T00:37:42;100033.00;;;12.19;100.00
8051;BME280;4068;42.158;24.732;2023-05-09T00:40:07;100012.19;;;12.13;100.00
8051;BME280;4068;42.158;24.732;2023-05-09T00:42:34;100034.06;;;12.16;100.00
8051;BME280;4068;42.158;24.732;2023-05-09T00:45:00;100036.38;;;12.09;100.00
8051;BME280;4068;42.158;24.732;2023-05-09T00:47:27;100039.78;;;12.12;100.00
8051;BME280;4068;42.158;24.732;2023-05-09T00:49:53;100038.56;;;12.04;100.00
8051;BME280;4068;42.158;24.732;2023-05-09T00:52:18;100042.69;;;11.97;100.00
8051;BME280;4068;42.158;24.732;2023-05-09T00:54:50;100037.66;;;11.92;100.00
8051;BME280;4068;42.158;24.732;2023-05-09T00:57:16;99969.66;;;11.45;100.00
8051;BME280;4068;42.158;24.732;2023-05-09T00:59:41;100033.34;;;11.91;100.00
8051;BME280;4068;42.158;24.732;2023-05-09T01:02:06;100045.78;;;12.02;100.00
8051;BME280;4068;42.158;24.732;2023-05-09T01:04:32;100034.78;;;12.07;100.00
8051;BME280;4068;42.158;24.732;2023-05-09T01:09:46;100048.81;;;11.98;100.00
8051;BME280;4068;42.158;24.732;2023-05-09T01:18:08;100045.16;;;11.87;100.00
8051;BME280;4068;42.158;24.732;2023-05-09T01:20:45;100044.09;;;11.90;100.00
8051;BME280;4068;42.158;24.732;2023-05-09T01:31:03;100050.94;;;11.92;100.00
8051;BME280;4068;42.158;24.732;2023-05-09T01:33:31;100046.16;;;11.98;100.00
8051;BME280;4068;42.158;24.732;2023-05-09T01:36:01;100051.84;;;12.04;100.00
8051;BME280;4068;42.158;24.732;2023-05-09T01:38:29;100055.97;;;12.08;100.00
8051;BME280;4068;42.158;24.732;2023-05-09T01:40:56;100049.91;;;12.06;100.00
8051;BME280;4068;42.158;24.732;2023-05-09T01:43:26;100039.16;;;11.97;100.00
8051;BME280;4068;42.158;24.732;2023-05-09T01:45:53;100046.63;;;11.91;100.00
8051;BME280;4068;42.158;24.732;2023-05-09T01:48:19;100054.09;;;11.86;100.00
8051;BME280;4068;42.158;24.732;2023-05-09T01:50:46;100046.63;;;11.80;100.00
8051;BME280;4068;42.158;24.732;2023-05-09T01:53:13;100055.06;;;11.85;100.00
8051;BME280;4068;42.158;24.732;2023-05-09T01:55:40;100057.84;;;11.84;100.00
8051;BME280;4068;42.158;24.732;2023-05-09T01:58:07;100068.81;;;11.79;100.00
8051;BME280;4068;42.158;24.732;2023-05-09T02:00:34;100071.22;;;11.71;100.00
8051;BME280;4068;42.158;24.732;2023-05-09T02:03:01;100051.28;;;11.65;100.00
8051;BME280;4068;42.158;24.732;2023-05-09T02:05:28;100069.31;;;11.73;100.00
8051;BME280;4068;42.158;24.732;2023-05-09T02:07:55;100071.47;;;11.79;100.00
8051;BME280;4068;42.158;24.732;2023-05-09T02:10:26;100067.75;;;11.82;100.00
8051;BME280;4068;42.158;24.732;2023-05-09T02:12:53;100065.44;;;11.77;100.00
8051;BME280;4068;42.158;24.732;2023-05-09T02:15:18;100041.03;;;11.61;100.00
8051;BME280;4068;42.158;24.732;2023-05-09T02:17:44;100075.09;;;11.78;100.00
8051;BME280;4068;42.158;24.732;2023-05-09T02:20:09;100052.00;;;11.56;100.00
8051;BME280;4068;42.158;24.732;2023-05-09T02:22:36;100074.84;;;11.70;100.00
8051;BME280;4068;42.158;24.732;2023-05-09T02:25:04;100060.13;;;11.66;100.00
8051;BME280;4068;42.158;24.732;2023-05-09T02:27:34;100078.00;;;11.75;100.00
8051;BME280;4068;42.158;24.732;2023-05-09T02:30:03;100076.41;;;11.72;100.00
8051;BME280;4068;42.158;24.732;2023-05-09T02:32:33;100073.28;;;11.67;100.00
8051;BME280;4068;42.158;24.732;2023-05-09T02:35:00;100072.19;;;11.70;100.00
8051;BME280;4068;42.158;24.732;2023-05-09T02:37:26;100080.66;;;11.75;100.00
8051;BME280;4068;42.158;24.732;2023-05-09T02:39:53;100074.00;;;11.69;100.00
8051;BME280;4068;42.158;24.732;2023-05-09T02:42:22;100084.16;;;11.75;100.00
8051;BME280;4068;42.158;24.732;2023-05-09T02:44:50;100084.78;;;11.79;100.00
8051;BME280;4068;42.158;24.732;2023-05-09T02:47:16;100093.47;;;11.81;100.00
8051;BME280;4068;42.158;24.732;2023-05-09T02:49:41;100056.97;;;11.61;100.00
8051;BME280;4068;42.158;24.732;2023-05-09T02:52:07;100088.88;;;11.72;100.00
8051;BME280;4068;42.158;24.732;2023-05-09T02:54:32;100094.31;;;11.82;100.00
8051;BME280;4068;42.158;24.732;2023-05-09T02:56:58;100092.75;;;11.79;100.00
8051;BME280;4068;42.158;24.732;2023-05-09T02:59:24;100087.88;;;11.62;100.00
8051;BME280;4068;42.158;24.732;2023-05-09T03:01:50;100094.66;;;11.77;100.00
8051;BME280;4068;42.158;24.732;2023-05-09T03:04:16;100091.78;;;11.80;100.00
8051;BME280;4068;42.158;24.732;2023-05-09T03:06:42;100088.13;;;11.81;100.00
8051;BME280;4068;42.158;24.732;2023-05-09T03:09:07;100086.47;;;11.80;100.00
8051;BME280;4068;42.158;24.732;2023-05-09T03:11:34;100098.06;;;11.79;100.00
8051;BME280;4068;42.158;24.732;2023-05-09T03:14:01;100085.69;;;11.67;100.00
8051;BME280;4068;42.158;24.732;2023-05-09T03:16:26;100115.19;;;11.75;100.00
8051;BME280;4068;42.158;24.732;2023-05-09T03:18:52;100081.59;;;11.74;100.00
8051;BME280;4068;42.158;24.732;2023-05-09T03:21:17;100094.56;;;11.79;100.00
8051;BME280;4068;42.158;24.732;2023-05-09T03:23:43;100083.69;;;11.82;100.00
8051;BME280;4068;42.158;24.732;2023-05-09T03:26:08;100120.84;;;11.95;100.00
8051;BME280;4068;42.158;24.732;2023-05-09T03:28:34;100124.94;;;11.99;100.00
8051;BME280;4068;42.158;24.732;2023-05-09T03:30:59;100126.03;;;11.96;100.00
8051;BME280;4068;42.158;24.732;2023-05-09T03:33:25;100126.88;;;11.97;100.00
8051;BME280;4068;42.158;24.732;2023-05-09T03:35:51;100123.25;;;11.98;100.00
8051;BME280;4068;42.158;24.732;2023-05-09T03:38:16;100124.44;;;11.94;100.00
8051;BME280;4068;42.158;24.732;2023-05-09T03:40:42;100099.97;;;11.77;100.00
8051;BME280;4068;42.158;24.732;2023-05-09T03:43:07;100131.94;;;12.00;100.00
8051;BME280;4068;42.158;24.732;2023-05-09T03:45:33;100133.53;;;12.02;100.00
8051;BME280;4068;42.158;24.732;2023-05-09T03:48:00;100138.13;;;12.00;100.00
8051;BME280;4068;42.158;24.732;2023-05-09T03:50:28;100124.22;;;11.97;100.00
8051;BME280;4068;42.158;24.732;2023-05-09T03:52:53;100148.13;;;11.97;100.00
8051;BME280;4068;42.158;24.732;2023-05-09T03:55:20;100133.34;;;11.92;100.00
8051;BME280;4068;42.158;24.732;2023-05-09T03:57:47;100139.31;;;11.96;100.00
8051;BME280;4068;42.158;24.732;2023-05-09T04:00:13;100127.09;;;11.94;100.00
8051;BME280;4068;42.158;24.732;2023-05-09T04:02:40;100115.41;;;11.96;100.00
8051;BME280;4068;42.158;24.732;2023-05-09T04:05:06;100144.06;;;12.15;100.00
8051;BME280;4068;42.158;24.732;2023-05-09T04:07:32;100142.34;;;12.25;100.00
8051;BME280;4068;42.158;24.732;2023-05-09T04:09:57;100137.06;;;12.14;100.00
8051;BME280;4068;42.158;24.732;2023-05-09T04:12:23;100150.13;;;12.17;100.00
8051;BME280;4068;42.158;24.732;2023-05-09T04:14:48;100150.44;;;12.13;100.00
8051;BME280;4068;42.158;24.732;2023-05-09T04:17:15;100154.34;;;12.08;100.00
8051;BME280;4068;42.158;24.732;2023-05-09T04:19:41;100131.47;;;11.95;100.00
8051;BME280;4068;42.158;24.732;2023-05-09T04:22:06;100149.72;;;12.11;100.00
8051;BME280;4068;42.158;24.732;2023-05-09T04:24:32;100155.78;;;12.24;100.00
8051;BME280;4068;42.158;24.732;2023-05-09T04:26:58;100154.94;;;12.23;100.00
8051;BME280;4068;42.158;24.732;2023-05-09T04:29:23;100157.84;;;12.20;100.00
8051;BME280;4068;42.158;24.732;2023-05-09T04:31:49;100141.16;;;12.18;100.00
8051;BME280;4068;42.158;24.732;2023-05-09T04:34:14;100151.78;;;12.18;100.00
8051;BME280;4068;42.158;24.732;2023-05-09T04:36:39;100160.03;;;12.26;100.00
8051;BME280;4068;42.158;24.732;2023-05-09T04:39:05;100156.88;;;12.21;100.00
8051;BME280;4068;42.158;24.732;2023-05-09T04:41:32;100156.53;;;12.26;100.00
8051;BME280;4068;42.158;24.732;2023-05-09T04:43:57;100129.06;;;12.03;100.00
8051;BME280;4068;42.158;24.732;2023-05-09T04:46:23;100160.75;;;12.17;100.00
8051;BME280;4068;42.158;24.732;2023-05-09T04:48:48;100157.59;;;12.23;100.00
8051;BME280;4068;42.158;24.732;2023-05-09T04:51:14;100155.88;;;12.11;100.00
8051;BME280;4068;42.158;24.732;2023-05-09T04:53:40;100149.25;;;12.17;100.00
8051;BME280;4068;42.158;24.732;2023-05-09T04:56:05;100166.06;;;12.17;100.00
8051;BME280;4068;42.158;24.732;2023-05-09T04:58:31;100148.66;;;12.13;100.00
8051;BME280;4068;42.158;24.732;2023-05-09T05:00:58;100158.09;;;12.17;100.00
8051;BME280;4068;42.158;24.732;2023-05-09T05:03:24;100163.28;;;12.19;100.00
8051;BME280;4068;42.158;24.732;2023-05-09T05:05:49;100167.63;;;12.20;100.00
8051;BME280;4068;42.158;24.732;2023-05-09T05:08:14;100145.25;;;12.11;100.00
8051;BME280;4068;42.158;24.732;2023-05-09T05:10:40;100141.88;;;12.09;100.00
8051;BME280;4068;42.158;24.732;2023-05-09T05:13:06;100163.03;;;12.11;100.00
8051;BME280;4068;42.158;24.732;2023-05-09T05:15:31;100177.19;;;12.22;100.00
8051;BME280;4068;42.158;24.732;2023-05-09T05:17:56;100174.88;;;12.18;100.00
8051;BME280;4068;42.158;24.732;2023-05-09T05:20:22;100168.97;;;12.14;100.00
8051;BME280;4068;42.158;24.732;2023-05-09T05:22:47;100167.03;;;12.16;100.00
8051;BME280;4068;42.158;24.732;2023-05-09T05:25:13;100177.41;;;12.19;100.00
8051;BME280;4068;42.158;24.732;2023-05-09T05:27:38;100180.81;;;12.21;100.00
8051;BME280;4068;42.158;24.732;2023-05-09T05:30:04;100179.94;;;12.21;100.00
8051;BME280;4068;42.158;24.732;2023-05-09T05:32:30;100183.34;;;12.23;100.00
8051;BME280;4068;42.158;24.732;2023-05-09T05:34:55;100172.84;;;12.21;100.00
8051;BME280;4068;42.158;24.732;2023-05-09T05:37:21;100185.03;;;12.24;100.00
8051;BME280;4068;42.158;24.732;2023-05-09T05:39:47;100159.16;;;12.03;100.00
8051;BME280;4068;42.158;24.732;2023-05-09T05:42:12;100131.34;;;11.96;100.00
8051;BME280;4068;42.158;24.732;2023-05-09T05:44:38;100186.38;;;12.30;100.00
8051;BME280;4068;42.158;24.732;2023-05-09T05:47:03;100162.06;;;12.12;100.00
8051;BME280;4068;42.158;24.732;2023-05-09T05:49:29;100192.19;;;12.35;100.00
8051;BME280;4068;42.158;24.732;2023-05-09T05:51:54;100188.09;;;12.42;100.00
8051;BME280;4068;42.158;24.732;2023-05-09T05:54:20;100183.97;;;12.38;100.00
8051;BME280;4068;42.158;24.732;2023-05-09T05:56:45;100165.94;;;12.19;100.00
8051;BME280;4068;42.158;24.732;2023-05-09T05:59:10;100184.81;;;12.27;100.00
8051;BME280;4068;42.158;24.732;2023-05-09T06:01:36;100163.41;;;12.17;100.00
8051;BME280;4068;42.158;24.732;2023-05-09T06:04:01;100194.13;;;12.33;100.00
8051;BME280;4068;42.158;24.732;2023-05-09T06:06:27;100183.47;;;12.21;100.00
8051;BME280;4068;42.158;24.732;2023-05-09T06:08:52;100192.88;;;12.25;100.00
8051;BME280;4068;42.158;24.732;2023-05-09T06:11:18;100182.88;;;12.29;100.00
8051;BME280;4068;42.158;24.732;2023-05-09T06:13:43;100188.59;;;12.47;100.00
8051;BME280;4068;42.158;24.732;2023-05-09T06:16:09;100188.09;;;12.53;100.00
8051;BME280;4068;42.158;24.732;2023-05-09T06:18:35;100178.66;;;12.49;100.00
8051;BME280;4068;42.158;24.732;2023-05-09T06:21:02;100187.00;;;12.56;100.00
8051;BME280;4068;42.158;24.732;2023-05-09T06:23:28;100193.16;;;12.56;100.00
8051;BME280;4068;42.158;24.732;2023-05-09T06:25:54;100185.06;;;12.58;100.00
8051;BME280;4068;42.158;24.732;2023-05-09T06:28:19;100189.19;;;12.62;100.00
8051;BME280;4068;42.158;24.732;2023-05-09T06:30:45;100195.56;;;12.82;100.00
8051;BME280;4068;42.158;24.732;2023-05-09T06:33:10;100187.00;;;12.90;100.00
8051;BME280;4068;42.158;24.732;2023-05-09T06:35:35;100188.66;;;12.91;100.00
8051;BME280;4068;42.158;24.732;2023-05-09T06:38:01;100190.63;;;12.89;100.00
8051;BME280;4068;42.158;24.732;2023-05-09T06:40:27;100180.34;;;12.84;100.00
8051;BME280;4068;42.158;24.732;2023-05-09T06:42:52;100195.31;;;12.85;100.00
8051;BME280;4068;42.158;24.732;2023-05-09T06:45:17;100189.78;;;12.88;100.00
8051;BME280;4068;42.158;24.732;2023-05-09T06:47:43;100183.22;;;12.92;100.00
8051;BME280;4068;42.158;24.732;2023-05-09T06:50:08;100189.75;;;13.00;100.00
8051;BME280;4068;42.158;24.732;2023-05-09T06:52:34;100189.50;;;13.14;100.00
8051;BME280;4068;42.158;24.732;2023-05-09T06:55:00;100183.06;;;13.05;100.00
8051;BME280;4068;42.158;24.732;2023-05-09T06:57:25;100167.34;;;13.13;100.00
8051;BME280;4068;42.158;24.732;2023-05-09T06:59:51;100201.09;;;13.24;100.00
8051;BME280;4068;42.158;24.732;2023-05-09T07:02:16;100199.91;;;13.17;100.00
8051;BME280;4068;42.158;24.732;2023-05-09T07:04:42;100206.69;;;13.21;100.00
8051;BME280;4068;42.158;24.732;2023-05-09T07:07:07;100208.00;;;13.38;100.00
8051;BME280;4068;42.158;24.732;2023-05-09T07:09:32;100200.81;;;13.50;100.00
8051;BME280;4068;42.158;24.732;2023-05-09T07:12:01;100208.59;;;13.42;100.00
8051;BME280;4068;42.158;24.732;2023-05-09T07:14:26;100204.97;;;13.20;100.00
8051;BME280;4068;42.158;24.732;2023-05-09T07:16:52;100180.56;;;12.92;100.00
8051;BME280;4068;42.158;24.732;2023-05-09T07:19:20;100198.72;;;12.87;100.00
8051;BME280;4068;42.158;24.732;2023-05-09T07:21:46;100215.53;;;12.99;100.00
8051;BME280;4068;42.158;24.732;2023-05-09T07:24:11;100215.16;;;13.04;100.00
8051;BME280;4068;42.158;24.732;2023-05-09T07:26:36;100201.84;;;13.04;100.00
8051;BME280;4068;42.158;24.732;2023-05-09T07:29:02;100207.16;;;13.15;100.00
8051;BME280;4068;42.158;24.732;2023-05-09T07:31:28;100211.66;;;13.15;100.00
8051;BME280;4068;42.158;24.732;2023-05-09T07:33:54;100208.97;;;13.15;100.00
8051;BME280;4068;42.158;24.732;2023-05-09T07:36:19;100204.72;;;13.23;100.00
8051;BME280;4068;42.158;24.732;2023-05-09T07:38:44;100215.13;;;13.26;100.00
8051;BME280;4068;42.158;24.732;2023-05-09T07:41:12;100183.22;;;13.04;100.00
8051;BME280;4068;42.158;24.732;2023-05-09T07:43:37;100208.84;;;13.27;100.00
8051;BME280;4068;42.158;24.732;2023-05-09T07:46:03;100207.13;;;13.38;100.00
8051;BME280;4068;42.158;24.732;2023-05-09T07:48:28;100193.19;;;13.34;100.00
8051;BME280;4068;42.158;24.732;2023-05-09T07:50:54;100223.72;;;13.41;100.00
8051;BME280;4068;42.158;24.732;2023-05-09T07:53:19;100218.72;;;13.48;100.00
8051;BME280;4068;42.158;24.732;2023-05-09T07:55:45;100202.53;;;13.28;100.00
8051;BME280;4068;42.158;24.732;2023-05-09T07:58:12;100206.31;;;13.37;100.00
8051;BME280;4068;42.158;24.732;2023-05-09T08:00:38;100221.59;;;13.56;100.00
8051;BME280;4068;42.158;24.732;2023-05-09T08:03:03;100200.22;;;13.35;100.00
8051;BME280;4068;42.158;24.732;2023-05-09T08:05:28;100223.22;;;13.48;100.00
8051;BME280;4068;42.158;24.732;2023-05-09T08:07:54;100223.31;;;13.57;100.00
8051;BME280;4068;42.158;24.732;2023-05-09T08:10:19;100223.44;;;13.56;100.00
8051;BME280;4068;42.158;24.732;2023-05-09T08:12:46;100222.03;;;13.40;100.00
8051;BME280;4068;42.158;24.732;2023-05-09T08:15:11;100216.13;;;13.37;100.00
8051;BME280;4068;42.158;24.732;2023-05-09T08:17:37;100221.53;;;13.46;100.00
8051;BME280;4068;42.158;24.732;2023-05-09T08:20:02;100210.78;;;13.37;100.00
8051;BME280;4068;42.158;24.732;2023-05-09T08:22:29;100226.00;;;13.46;100.00
8051;BME280;4068;42.158;24.732;2023-05-09T08:24:55;100227.50;;;13.71;100.00
8051;BME280;4068;42.158;24.732;2023-05-09T08:27:20;100230.44;;;13.89;100.00
8051;BME280;4068;42.158;24.732;2023-05-09T08:29:46;100218.28;;;13.96;100.00
8051;BME280;4068;42.158;24.732;2023-05-09T08:32:11;100236.31;;;14.04;100.00
8051;BME280;4068;42.158;24.732;2023-05-09T08:34:36;100230.19;;;14.13;100.00
8051;BME280;4068;42.158;24.732;2023-05-09T08:37:03;100206.38;;;13.79;100.00
8051;BME280;4068;42.158;24.732;2023-05-09T08:39:29;100214.06;;;13.73;100.00
8051;BME280;4068;42.158;24.732;2023-05-09T08:41:58;100228.66;;;13.90;100.00
8051;BME280;4068;42.158;24.732;2023-05-09T08:44:24;100209.19;;;13.99;100.00
8051;BME280;4068;42.158;24.732;2023-05-09T08:46:51;100230.88;;;14.06;100.00
8051;BME280;4068;42.158;24.732;2023-05-09T08:49:19;100232.78;;;14.04;100.00
8051;BME280;4068;42.158;24.732;2023-05-09T08:51:47;100232.63;;;14.17;100.00
8051;BME280;4068;42.158;24.732;2023-05-09T08:54:13;100225.88;;;14.12;100.00
8051;BME280;4068;42.158;24.732;2023-05-09T08:56:39;100222.59;;;14.09;100.00
8051;BME280;4068;42.158;24.732;2023-05-09T08:59:05;100204.38;;;13.93;100.00
8051;BME280;4068;42.158;24.732;2023-05-09T09:01:32;100216.63;;;13.95;100.00
8051;BME280;4068;42.158;24.732;2023-05-09T09:04:00;100224.56;;;14.07;100.00
8051;BME280;4068;42.158;24.732;2023-05-09T09:06:27;100229.63;;;14.31;100.00
8051;BME280;4068;42.158;24.732;2023-05-09T09:08:54;100233.47;;;14.38;100.00
8051;BME280;4068;42.158;24.732;2023-05-09T09:11:21;100229.09;;;14.58;100.00
8051;BME280;4068;42.158;24.732;2023-05-09T09:13:50;100226.91;;;14.73;100.00
8051;BME280;4068;42.158;24.732;2023-05-09T09:16:21;100228.81;;;14.61;100.00
8051;BME280;4068;42.158;24.732;2023-05-09T09:18:48;100230.19;;;14.77;100.00
8051;BME280;4068;42.158;24.732;2023-05-09T09:21:17;100236.13;;;14.90;100.00
8051;BME280;4068;42.158;24.732;2023-05-09T09:23:46;100228.19;;;15.10;100.00
8051;BME280;4068;42.158;24.732;2023-05-09T09:26:13;100234.22;;;15.12;100.00
8051;BME280;4068;42.158;24.732;2023-05-09T09:28:39;100223.28;;;15.15;100.00
8051;BME280;4068;42.158;24.732;2023-05-09T09:31:24;100234.03;;;15.54;100.00
8051;BME280;4068;42.158;24.732;2023-05-09T09:33:50;100217.47;;;15.99;100.00
8051;BME280;4068;42.158;24.732;2023-05-09T09:36:25;100229.53;;;16.33;100.00
8051;BME280;4068;42.158;24.732;2023-05-09T09:38:58;100223.88;;;16.83;100.00
8051;BME280;4068;42.158;24.732;2023-05-09T09:41:33;100228.44;;;17.11;100.00
8051;BME280;4068;42.158;24.732;2023-05-09T09:44:08;100212.41;;;17.01;100.00
8051;BME280;4068;42.158;24.732;2023-05-09T09:46:44;100224.22;;;17.36;100.00
8051;BME280;4068;42.158;24.732;2023-05-09T09:49:14;100218.94;;;16.79;100.00
8051;BME280;4068;42.158;24.732;2023-05-09T09:51:40;100206.88;;;16.74;100.00
8051;BME280;4068;42.158;24.732;2023-05-09T09:54:07;100207.34;;;16.98;100.00
8051;BME280;4068;42.158;24.732;2023-05-09T09:56:49;100209.63;;;17.38;100.00
8051;BME280;4068;42.158;24.732;2023-05-09T09:59:20;100213.69;;;17.42;100.00
8051;BME280;4068;42.158;24.732;2023-05-09T10:02:03;100224.06;;;17.37;100.00
8051;BME280;4068;42.158;24.732;2023-05-09T10:04:31;100223.78;;;16.75;100.00
8051;BME280;4068;42.158;24.732;2023-05-09T10:06:57;100224.03;;;16.34;100.00
8051;BME280;4068;42.158;24.732;2023-05-09T10:09:24;100219.13;;;16.20;100.00
8051;BME280;4068;42.158;24.732;2023-05-09T10:11:51;100201.97;;;15.93;100.00
8051;BME280;4068;42.158;24.732;2023-05-09T10:14:19;100210.66;;;16.34;100.00
8051;BME280;4068;42.158;24.732;2023-05-09T10:16:50;100211.34;;;16.46;100.00
8051;BME280;4068;42.158;24.732;2023-05-09T10:19:20;100228.28;;;16.17;100.00
8051;BME280;4068;42.158;24.732;2023-05-09T10:22:12;100235.03;;;16.31;100.00
8051;BME280;4068;42.158;24.732;2023-05-09T10:24:43;100225.38;;;16.01;100.00
8051;BME280;4068;42.158;24.732;2023-05-09T10:27:11;100224.09;;;16.15;100.00
8051;BME280;4068;42.158;24.732;2023-05-09T10:29:40;100214.75;;;16.29;100.00
8051;BME280;4068;42.158;24.732;2023-05-09T10:32:26;100198.38;;;16.42;100.00
8051;BME280;4068;42.158;24.732;2023-05-09T10:35:03;100225.38;;;16.58;100.00
8051;BME280;4068;42.158;24.732;2023-05-09T10:37:29;100226.53;;;16.46;100.00
8051;BME280;4068;42.158;24.732;2023-05-09T10:39:56;100240.38;;;16.31;100.00
8051;BME280;4068;42.158;24.732;2023-05-09T10:42:22;100240.53;;;16.20;100.00
8051;BME280;4068;42.158;24.732;2023-05-09T10:44:50;100230.84;;;16.09;100.00
8051;BME280;4068;42.158;24.732;2023-05-09T10:47:16;100231.25;;;16.24;100.00
8051;BME280;4068;42.158;24.732;2023-05-09T10:49:42;100228.28;;;16.27;100.00
8051;BME280;4068;42.158;24.732;2023-05-09T10:52:08;100226.66;;;16.54;100.00
8051;BME280;4068;42.158;24.732;2023-05-09T10:54:35;100228.56;;;16.24;100.00
8051;BME280;4068;42.158;24.732;2023-05-09T10:57:02;100207.50;;;15.82;100.00
8051;BME280;4068;42.158;24.732;2023-05-09T11:01:57;100236.31;;;16.27;100.00
8051;BME280;4068;42.158;24.732;2023-05-09T11:04:28;100205.50;;;16.03;100.00
8051;BME280;4068;42.158;24.732;2023-05-09T11:06:53;100196.81;;;15.82;100.00
8051;BME280;4068;42.158;24.732;2023-05-09T11:11:55;100213.06;;;16.28;100.00
8051;BME280;4068;42.158;24.732;2023-05-09T11:14:43;100220.19;;;16.56;100.00
8051;BME280;4068;42.158;24.732;2023-05-09T11:17:29;100223.75;;;16.85;100.00
8051;BME280;4068;42.158;24.732;2023-05-09T11:20:02;100211.53;;;17.28;99.58
8051;BME280;4068;42.158;24.732;2023-05-09T11:22:32;100212.44;;;17.65;96.73
8051;BME280;4068;42.158;24.732;2023-05-09T11:30:05;100198.53;;;17.33;95.84
8051;BME280;4068;42.158;24.732;2023-05-09T11:32:33;100215.19;;;17.91;94.62
8051;BME280;4068;42.158;24.732;2023-05-09T11:35:14;100213.81;;;18.31;91.72
8051;BME280;4068;42.158;24.732;2023-05-09T11:40:14;100218.75;;;18.70;89.58
8051;BME280;4068;42.158;24.732;2023-05-09T11:42:45;100203.44;;;18.89;87.32
8051;BME280;4068;42.158;24.732;2023-05-09T11:45:11;100212.53;;;18.70;89.66
8051;BME280;4068;42.158;24.732;2023-05-09T11:47:38;100205.66;;;18.75;89.03
8051;BME280;4068;42.158;24.732;2023-05-09T11:50:11;100208.31;;;18.93;88.03
8051;BME280;4068;42.158;24.732;2023-05-09T11:52:38;100214.69;;;18.92;88.70
8051;BME280;4068;42.158;24.732;2023-05-09T11:57:34;100204.75;;;18.32;89.82
8051;BME280;4068;42.158;24.732;2023-05-09T11:59:59;100204.47;;;17.91;93.16
8051;BME280;4068;42.158;24.732;2023-05-09T12:02:26;100207.97;;;17.55;94.47
8051;BME280;4068;42.158;24.732;2023-05-09T12:04:51;100184.38;;;16.95;97.17
8051;BME280;4068;42.158;24.732;2023-05-09T12:07:18;100202.88;;;17.16;98.12
8051;BME280;4068;42.158;24.732;2023-05-09T12:09:48;100201.38;;;17.32;96.94
8051;BME280;4068;42.158;24.732;2023-05-09T12:12:13;100188.03;;;17.40;95.94
8051;BME280;4068;42.158;24.732;2023-05-09T12:14:40;100197.22;;;17.19;95.31
8051;BME280;4068;42.158;24.732;2023-05-09T12:17:06;100203.91;;;17.05;96.76
8051;BME280;4068;42.158;24.732;2023-05-09T12:19:33;100198.78;;;16.84;97.11
8051;BME280;4068;42.158;24.732;2023-05-09T12:22:00;100193.50;;;16.74;97.27
8051;BME280;4068;42.158;24.732;2023-05-09T12:24:27;100159.44;;;16.57;98.47
8051;BME280;4068;42.158;24.732;2023-05-09T12:26:58;100182.69;;;16.94;97.58
8051;BME280;4068;42.158;24.732;2023-05-09T12:29:24;100185.56;;;17.29;95.78
8051;BME280;4068;42.158;24.732;2023-05-09T12:31:51;100164.00;;;17.30;94.70
8051;BME280;4068;42.158;24.732;2023-05-09T12:34:17;100182.69;;;17.40;92.64
8051;BME280;4068;42.158;24.732;2023-05-09T12:36:44;100173.50;;;17.42;94.39
8051;BME280;4068;42.158;24.732;2023-05-09T12:39:18;100153.47;;;17.01;94.65
8051;BME280;4068;42.158;24.732;2023-05-09T12:41:47;100166.44;;;17.23;94.85
8051;BME280;4068;42.158;24.732;2023-05-09T12:44:24;100163.00;;;17.13;96.17
8051;BME280;4068;42.158;24.732;2023-05-09T12:47:03;100137.31;;;16.83;96.55
8051;BME280;4068;42.158;24.732;2023-05-09T12:49:29;100168.09;;;17.06;96.26
8051;BME280;4068;42.158;24.732;2023-05-09T12:51:58;100165.78;;;16.94;95.84
8051;BME280;4068;42.158;24.732;2023-05-09T12:54:28;100172.97;;;16.55;97.43
8051;BME280;4068;42.158;24.732;2023-05-09T12:56:55;100168.72;;;16.25;98.60
8051;BME280;4068;42.158;24.732;2023-05-09T12:59:25;100165.91;;;16.17;100.00
8051;BME280;4068;42.158;24.732;2023-05-09T13:01:53;100147.53;;;15.84;100.00
8051;BME280;4068;42.158;24.732;2023-05-09T13:04:19;100158.78;;;15.98;100.00
8051;BME280;4068;42.158;24.732;2023-05-09T13:06:53;100158.78;;;15.98;100.00
8051;BME280;4068;42.158;24.732;2023-05-09T13:09:21;100155.66;;;16.12;100.00
8051;BME280;4068;42.158;24.732;2023-05-09T13:11:47;100155.50;;;16.51;99.52
8051;BME280;4068;42.158;24.732;2023-05-09T13:14:14;100134.81;;;16.53;97.54
8051;BME280;4068;42.158;24.732;2023-05-09T13:16:39;100143.78;;;16.90;98.18
8051;BME280;4068;42.158;24.732;2023-05-09T13:19:05;100144.88;;;16.97;95.14
8051;BME280;4068;42.158;24.732;2023-05-09T13:21:31;100145.97;;;16.77;97.00